Time;durP1;ratioP1;P1;durP2;ratioP2;P2;SDS_P1;SDS_P2;PMS_P1;PMS_P2;Temp;Humidity;BMP_temperature;BMP_pressure;BME280_temperature;BME280_humidity;BME280_pressure;Samples;Min_cycle;Max_cycle;Signal;HPM_P1;HPM_P2
2021/04/23 00:01:22;;;;;;;12.13;5.03;;;5.80;99.90;;;;;;5042674;28;20230;-56
2021/04/23 00:03:50;;;;;;;13.13;4.73;;;5.80;99.90;;;;;;5044629;28;20625;-53
2021/04/23 00:06:21;;;;;;;12.40;4.83;;;5.70;99.90;;;;;;5028952;28;20688;-55
2021/04/23 00:08:51;;;;;;;13.60;5.10;;;5.80;99.90;;;;;;5051576;28;20214;-52
2021/04/23 00:11:20;;;;;;;12.37;4.97;;;5.80;99.90;;;;;;5042666;28;20217;-56
2021/04/23 00:13:48;;;;;;;11.57;4.83;;;5.70;99.90;;;;;;5044661;28;20196;-52
2021/04/23 00:16:14;;;;;;;8.47;4.67;;;5.80;99.90;;;;;;5043506;28;20199;-50
2021/04/23 00:18:41;;;;;;;15.20;5.40;;;5.80;99.90;;;;;;5033989;28;20253;-52
2021/04/23 00:21:08;;;;;;;11.10;4.47;;;5.80;99.90;;;;;;5056725;28;20226;-52
2021/04/23 00:23:35;;;;;;;11.17;5.17;;;5.80;99.90;;;;;;5061537;28;20936;-51
2021/04/23 00:26:01;;;;;;;15.23;5.63;;;5.80;99.90;;;;;;5064344;28;20554;-52
2021/04/23 00:28:27;;;;;;;12.87;5.17;;;5.80;99.90;;;;;;5060777;28;20279;-50
2021/04/23 00:30:55;;;;;;;11.30;4.97;;;5.80;99.90;;;;;;5064735;28;20225;-54
2021/04/23 00:33:23;;;;;;;15.40;5.10;;;5.80;99.90;;;;;;5052450;28;20675;-54
2021/04/23 00:35:51;;;;;;;12.27;4.37;;;5.80;99.90;;;;;;5055662;28;20627;-51
2021/04/23 00:38:19;;;;;;;12.67;4.23;;;5.80;99.90;;;;;;5056997;28;20205;-56
2021/04/23 00:40:49;;;;;;;12.93;5.07;;;5.80;99.90;;;;;;5059887;28;20570;-51
2021/04/23 00:43:17;;;;;;;12.43;5.13;;;5.70;99.90;;;;;;5048137;28;20241;-54
2021/04/23 00:45:44;;;;;;;14.60;4.80;;;5.70;99.90;;;;;;5043338;28;20191;-52
2021/04/23 00:48:11;;;;;;;12.57;4.83;;;5.70;99.90;;;;;;5048213;28;20219;-54
2021/04/23 00:50:41;;;;;;;10.73;5.60;;;5.70;99.90;;;;;;5036159;28;20222;-53
2021/04/23 00:53:10;;;;;;;7.37;4.40;;;5.70;99.90;;;;;;5044022;28;20282;-54
2021/04/23 00:55:37;;;;;;;12.57;4.90;;;5.60;99.90;;;;;;5041425;28;20187;-54
2021/04/23 00:58:05;;;;;;;12.77;5.03;;;5.60;99.90;;;;;;5044554;28;20192;-52
2021/04/23 01:00:31;;;;;;;14.77;4.67;;;5.60;99.90;;;;;;5022610;28;20218;-51
2021/04/23 01:02:57;;;;;;;11.67;4.57;;;5.60;99.90;;;;;;5044498;28;20333;-54
2021/04/23 01:05:31;;;;;;;17.10;5.10;;;5.60;99.90;;;;;;5033141;28;20203;-51
2021/04/23 01:07:57;;;;;;;15.33;4.97;;;5.60;99.90;;;;;;5047887;28;20611;-52
2021/04/23 01:10:23;;;;;;;12.67;4.30;;;5.60;99.90;;;;;;5060087;28;20589;-56
2021/04/23 01:12:50;;;;;;;12.03;4.90;;;5.60;99.90;;;;;;5064643;28;20667;-55
2021/04/23 01:15:16;;;;;;;8.67;4.47;;;5.60;99.90;;;;;;5061983;28;20581;-55
2021/04/23 01:17:43;;;;;;;16.97;5.17;;;5.60;99.90;;;;;;5059304;28;20256;-52
2021/04/23 01:20:10;;;;;;;17.03;5.43;;;5.60;99.90;;;;;;5051193;28;20659;-55
2021/04/23 01:22:38;;;;;;;14.23;4.97;;;5.60;99.90;;;;;;5020401;28;20207;-52
2021/04/23 01:25:05;;;;;;;12.60;4.73;;;5.60;99.90;;;;;;5050696;28;20195;-54
2021/04/23 01:27:32;;;;;;;9.20;4.40;;;5.60;99.90;;;;;;5039859;28;20211;-54
2021/04/23 01:29:58;;;;;;;10.77;4.50;;;5.50;99.90;;;;;;5043744;28;20202;-54
2021/04/23 01:32:25;;;;;;;16.10;5.13;;;5.60;99.90;;;;;;5039675;28;20218;-53
2021/04/23 01:34:52;;;;;;;13.33;4.43;;;5.60;99.90;;;;;;5043902;28;20199;-54
2021/04/23 01:37:18;;;;;;;14.63;4.90;;;5.50;99.90;;;;;;5034833;28;20188;-52
2021/04/23 01:39:45;;;;;;;11.87;3.83;;;5.50;99.90;;;;;;5048779;28;20195;-50
2021/04/23 01:42:13;;;;;;;10.93;3.97;;;5.50;99.90;;;;;;5042329;28;20269;-54
2021/04/23 01:44:40;;;;;;;12.20;4.97;;;5.50;99.90;;;;;;5041600;28;20194;-51
2021/04/23 01:47:07;;;;;;;11.47;4.27;;;5.50;99.90;;;;;;5043023;28;20286;-55
2021/04/23 01:49:34;;;;;;;8.67;4.33;;;5.50;99.90;;;;;;5048093;28;20213;-52
2021/04/23 01:52:05;;;;;;;8.50;4.90;;;5.50;99.90;;;;;;5055921;28;20214;-53
2021/04/23 01:54:31;;;;;;;16.50;4.57;;;5.50;99.90;;;;;;5040094;28;20311;-51
2021/04/23 01:56:58;;;;;;;13.03;4.77;;;5.50;99.90;;;;;;5043461;28;20196;-54
2021/04/23 01:59:25;;;;;;;8.20;3.80;;;5.50;99.90;;;;;;5039445;28;20191;-54
2021/04/23 02:01:51;;;;;;;10.03;3.90;;;5.50;99.90;;;;;;5043280;28;20238;-52
2021/04/23 02:04:20;;;;;;;12.30;4.37;;;5.50;99.90;;;;;;5040849;28;20672;-55
2021/04/23 02:06:49;;;;;;;11.47;4.10;;;5.50;99.90;;;;;;5042801;28;20253;-50
2021/04/23 02:09:15;;;;;;;15.40;4.63;;;5.50;99.90;;;;;;5039146;28;20285;-53
2021/04/23 02:11:44;;;;;;;7.67;3.57;;;5.50;99.90;;;;;;5051572;28;20965;-51
2021/04/23 02:14:11;;;;;;;10.27;4.47;;;5.50;99.90;;;;;;5042338;28;20191;-53
2021/04/23 02:16:38;;;;;;;13.10;3.77;;;5.40;99.90;;;;;;5040806;28;20191;-54
2021/04/23 02:19:05;;;;;;;9.17;3.57;;;5.40;99.90;;;;;;5043145;28;20196;-51
2021/04/23 02:21:32;;;;;;;9.27;3.57;;;5.50;99.90;;;;;;5039022;28;20530;-53
2021/04/23 02:23:58;;;;;;;15.73;4.83;;;5.50;99.90;;;;;;5047136;28;20202;-55
2021/04/23 02:26:24;;;;;;;10.37;3.67;;;5.50;99.90;;;;;;5039398;28;20211;-55
2021/04/23 02:28:53;;;;;;;12.77;4.53;;;5.50;99.90;;;;;;5043231;28;20593;-53
2021/04/23 02:31:22;;;;;;;9.07;3.70;;;5.50;99.90;;;;;;5040816;28;20344;-52
2021/04/23 02:33:51;;;;;;;10.17;4.20;;;5.60;99.90;;;;;;5043031;28;20187;-54
2021/04/23 02:36:17;;;;;;;13.63;3.40;;;5.60;99.90;;;;;;5040920;28;20183;-55
2021/04/23 02:38:45;;;;;;;10.17;4.00;;;5.70;99.90;;;;;;5041792;28;20186;-51
2021/04/23 02:41:13;;;;;;;9.57;3.00;;;5.70;99.90;;;;;;5038848;28;20218;-54
2021/04/23 02:43:42;;;;;;;12.80;3.30;;;5.70;99.90;;;;;;5061204;28;20218;-53
2021/04/23 02:46:09;;;;;;;9.47;3.33;;;5.80;99.90;;;;;;5062429;28;20197;-55
2021/04/23 02:48:39;;;;;;;8.40;3.07;;;5.70;99.90;;;;;;5062319;28;20274;-53
2021/04/23 02:51:09;;;;;;;7.87;3.20;;;5.80;99.90;;;;;;5067063;28;20699;-53
2021/04/23 02:53:35;;;;;;;8.33;3.20;;;5.80;99.90;;;;;;5064157;28;20244;-53
2021/04/23 02:56:02;;;;;;;14.60;4.00;;;5.80;99.90;;;;;;5066834;28;20191;-51
2021/04/23 02:58:29;;;;;;;10.67;2.93;;;5.80;99.90;;;;;;5042957;28;20205;-55
2021/04/23 03:00:57;;;;;;;11.97;3.20;;;5.90;99.90;;;;;;5046509;28;20586;-51
2021/04/23 03:03:24;;;;;;;6.10;3.00;;;5.80;99.90;;;;;;5043361;28;20278;-55
2021/04/23 03:05:52;;;;;;;10.57;2.90;;;5.80;99.90;;;;;;5047020;28;20194;-51
2021/04/23 03:08:20;;;;;;;9.87;2.63;;;5.90;99.90;;;;;;5044041;28;20215;-54
2021/04/23 03:10:48;;;;;;;11.50;2.73;;;5.90;99.90;;;;;;5047332;28;20558;-50
2021/04/23 03:13:20;;;;;;;11.60;3.93;;;5.90;99.90;;;;;;5044251;28;20206;-55
2021/04/23 03:15:47;;;;;;;8.93;2.50;;;5.90;99.90;;;;;;5046778;28;20199;-49
2021/04/23 03:18:17;;;;;;;11.43;3.03;;;6.00;99.90;;;;;;5027107;28;20237;-55
2021/04/23 03:20:43;;;;;;;6.97;2.63;;;6.00;99.90;;;;;;5044935;28;20211;-53
2021/04/23 03:23:11;;;;;;;8.90;2.47;;;6.00;99.90;;;;;;5045707;28;20202;-55
2021/04/23 03:25:38;;;;;;;10.37;2.20;;;5.90;99.90;;;;;;5026075;28;20823;-54
2021/04/23 03:28:05;;;;;;;7.90;2.33;;;5.90;99.90;;;;;;5042104;28;20206;-53
2021/04/23 03:30:34;;;;;;;9.07;2.63;;;6.00;99.90;;;;;;5053960;28;20301;-51
2021/04/23 03:33:03;;;;;;;7.87;2.60;;;5.90;99.90;;;;;;5066943;28;20206;-49
2021/04/23 03:35:30;;;;;;;9.67;2.87;;;6.00;99.90;;;;;;5062265;28;20894;-53
2021/04/23 03:37:57;;;;;;;9.23;2.73;;;6.00;99.90;;;;;;5066255;28;20187;-52
2021/04/23 03:40:28;;;;;;;5.90;2.60;;;5.90;99.90;;;;;;5037685;28;20238;-53
2021/04/23 03:42:54;;;;;;;6.37;2.67;;;5.90;99.90;;;;;;5048923;28;20210;-53
2021/04/23 03:45:22;;;;;;;9.23;2.63;;;5.90;99.90;;;;;;5054556;28;20202;-55
2021/04/23 03:47:50;;;;;;;11.77;2.80;;;5.90;99.90;;;;;;5065503;28;20241;-53
2021/04/23 03:50:21;;;;;;;10.33;2.47;;;5.90;99.90;;;;;;5063698;28;20552;-56
2021/04/23 03:52:48;;;;;;;8.83;2.20;;;5.90;99.90;;;;;;5065044;28;20209;-53
2021/04/23 03:55:18;;;;;;;8.83;2.23;;;5.90;99.90;;;;;;5064119;28;20199;-54
2021/04/23 03:57:46;;;;;;;8.50;2.43;;;5.80;99.90;;;;;;5064759;28;20190;-53
2021/04/23 04:00:17;;;;;;;7.97;2.57;;;5.80;99.90;;;;;;5037895;28;20207;-54
2021/04/23 04:02:43;;;;;;;10.37;2.53;;;5.80;99.90;;;;;;5044325;28;20216;-52
2021/04/23 04:05:11;;;;;;;10.23;2.30;;;5.80;99.90;;;;;;5027170;28;20649;-56
2021/04/23 04:07:38;;;;;;;7.50;2.30;;;5.80;99.90;;;;;;5042966;28;20360;-53
2021/04/23 04:10:06;;;;;;;14.20;2.60;;;5.80;99.90;;;;;;5045357;28;20206;-50
2021/04/23 04:12:32;;;;;;;8.20;2.27;;;5.80;99.90;;;;;;5049734;28;20187;-56
2021/04/23 04:14:59;;;;;;;8.43;2.87;;;5.80;99.90;;;;;;5045020;28;20251;-54
2021/04/23 04:17:25;;;;;;;12.03;2.40;;;5.70;99.90;;;;;;5045982;28;20237;-54
2021/04/23 04:19:51;;;;;;;9.20;2.37;;;5.70;99.90;;;;;;5045515;28;20200;-51
2021/04/23 04:22:17;;;;;;;11.60;2.83;;;5.70;99.90;;;;;;5042802;28;20211;-54
2021/04/23 04:24:43;;;;;;;6.97;2.53;;;5.70;99.90;;;;;;5043787;28;20249;-52
2021/04/23 04:27:10;;;;;;;8.10;2.83;;;5.70;99.90;;;;;;5044171;28;20220;-56
2021/04/23 04:29:36;;;;;;;8.30;2.40;;;5.70;99.90;;;;;;5034600;28;20215;-50
2021/04/23 04:32:03;;;;;;;10.27;2.47;;;5.70;99.90;;;;;;5060712;28;20215;-55
2021/04/23 04:34:30;;;;;;;8.43;2.20;;;5.70;99.90;;;;;;5038834;28;20895;-52
2021/04/23 04:36:56;;;;;;;14.43;2.90;;;5.70;99.90;;;;;;5045034;28;20199;-53
2021/04/23 04:39:22;;;;;;;14.80;3.00;;;5.70;99.90;;;;;;5041670;28;20235;-54
2021/04/23 04:41:48;;;;;;;8.30;2.30;;;5.70;99.90;;;;;;5044031;28;20208;-54
2021/04/23 04:44:14;;;;;;;11.43;2.47;;;5.70;99.90;;;;;;5038758;28;20195;-52
2021/04/23 04:46:41;;;;;;;10.73;2.13;;;5.70;99.90;;;;;;5029165;28;20202;-52
2021/04/23 04:49:08;;;;;;;9.63;2.20;;;5.70;99.90;;;;;;5064260;28;20693;-52
2021/04/23 04:51:34;;;;;;;8.13;2.47;;;5.70;99.90;;;;;;5061351;28;20854;-52
2021/04/23 04:54:00;;;;;;;8.93;2.13;;;5.70;99.90;;;;;;5064686;28;20671;-54
2021/04/23 04:56:26;;;;;;;7.40;2.20;;;5.70;99.90;;;;;;5060479;28;20847;-53
2021/04/23 04:58:52;;;;;;;9.53;2.53;;;5.70;99.90;;;;;;5064451;28;20608;-52
2021/04/23 05:01:19;;;;;;;8.60;2.20;;;5.70;99.90;;;;;;5049220;28;20229;-54
2021/04/23 05:03:45;;;;;;;7.27;1.97;;;5.70;99.90;;;;;;5045010;28;20195;-53
2021/04/23 05:06:13;;;;;;;10.97;2.40;;;5.70;99.90;;;;;;5043186;28;20207;-55
2021/04/23 05:08:39;;;;;;;11.37;1.80;;;5.80;99.90;;;;;;5042156;28;20207;-54
2021/04/23 05:11:05;;;;;;;10.43;1.90;;;5.80;99.90;;;;;;5044089;28;20211;-54
2021/04/23 05:13:32;;;;;;;9.63;2.50;;;5.80;99.90;;;;;;5040487;28;20194;-54
2021/04/23 05:15:59;;;;;;;8.83;2.60;;;5.80;99.90;;;;;;5048334;28;20195;-53
2021/04/23 05:18:25;;;;;;;12.50;2.50;;;5.80;99.90;;;;;;5032569;28;20207;-53
2021/04/23 05:20:51;;;;;;;7.03;2.23;;;5.90;99.90;;;;;;5063334;28;20223;-49
2021/04/23 05:23:18;;;;;;;8.23;2.40;;;5.90;99.90;;;;;;5061585;28;20187;-55
2021/04/23 05:25:44;;;;;;;13.40;2.67;;;5.90;99.90;;;;;;5062805;28;20273;-53
2021/04/23 05:28:11;;;;;;;10.67;2.43;;;5.90;99.90;;;;;;5062780;28;20224;-56
2021/04/23 05:30:38;;;;;;;11.47;2.40;;;6.00;99.90;;;;;;5061360;28;20206;-53
2021/04/23 05:33:06;;;;;;;7.63;2.00;;;6.00;99.90;;;;;;5052363;28;20260;-54
2021/04/23 05:35:32;;;;;;;15.90;2.67;;;6.00;99.90;;;;;;5043458;28;20187;-51
2021/04/23 05:37:59;;;;;;;12.10;2.37;;;6.10;99.90;;;;;;5043860;28;20191;-52
2021/04/23 05:40:29;;;;;;;10.83;2.57;;;6.10;99.90;;;;;;5037124;28;20218;-52
2021/04/23 05:42:55;;;;;;;9.77;2.13;;;6.10;99.90;;;;;;5054698;28;20239;-50
2021/04/23 05:45:23;;;;;;;10.33;2.33;;;6.20;99.90;;;;;;5060327;28;20202;-52
2021/04/23 05:47:49;;;;;;;14.23;2.70;;;6.20;99.90;;;;;;5047839;28;20208;-54
2021/04/23 05:50:16;;;;;;;8.20;2.30;;;6.30;99.90;;;;;;5055576;28;20648;-56
2021/04/23 05:52:43;;;;;;;8.47;2.20;;;6.30;99.90;;;;;;5050141;28;20223;-53
2021/04/23 05:55:12;;;;;;;17.53;2.47;;;6.30;99.90;;;;;;5040467;28;20203;-55
2021/04/23 05:57:39;;;;;;;11.13;2.77;;;6.40;99.90;;;;;;5043334;28;20719;-55
2021/04/23 06:00:08;;;;;;;10.53;2.33;;;6.40;99.90;;;;;;5049195;28;20593;-51
2021/04/23 06:02:39;;;;;;;12.03;2.23;;;6.50;99.90;;;;;;5063819;28;20237;-51
2021/04/23 06:05:07;;;;;;;16.07;2.97;;;6.50;99.90;;;;;;5034819;28;20766;-52
2021/04/23 06:07:33;;;;;;;9.83;2.37;;;6.50;99.90;;;;;;5043025;28;20227;-56
2021/04/23 06:09:59;;;;;;;10.37;2.27;;;6.60;99.90;;;;;;5051729;28;20260;-53
2021/04/23 06:12:25;;;;;;;14.67;3.83;;;6.60;99.90;;;;;;5045557;28;20215;-54
2021/04/23 06:14:52;;;;;;;13.93;3.20;;;6.70;99.90;;;;;;5026651;28;20791;-51
2021/04/23 06:17:19;;;;;;;15.80;3.23;;;6.70;99.90;;;;;;5035165;28;20609;-55
2021/04/23 06:19:45;;;;;;;11.63;2.33;;;6.80;99.90;;;;;;5031220;28;20282;-55
2021/04/23 06:22:11;;;;;;;14.27;2.73;;;6.80;99.90;;;;;;5039755;28;20219;-53
2021/04/23 06:24:37;;;;;;;12.17;3.13;;;6.90;99.90;;;;;;5048350;28;20198;-54
2021/04/23 06:27:04;;;;;;;13.73;2.67;;;6.90;99.90;;;;;;5047280;28;20578;-52
2021/04/23 06:29:32;;;;;;;13.43;2.93;;;7.00;99.90;;;;;;5040940;28;20196;-51
2021/04/23 06:32:00;;;;;;;14.00;2.83;;;7.00;99.90;;;;;;5048923;28;20234;-51
2021/04/23 06:34:26;;;;;;;15.40;2.60;;;7.10;99.90;;;;;;5036312;28;20241;-53
2021/04/23 06:36:52;;;;;;;15.97;3.33;;;7.20;99.90;;;;;;5062333;28;20711;-55
2021/04/23 06:39:19;;;;;;;13.70;3.17;;;7.20;99.90;;;;;;5039933;28;20203;-55
2021/04/23 06:41:46;;;;;;;10.67;2.30;;;7.20;99.90;;;;;;5051182;28;20981;-51
2021/04/23 06:44:13;;;;;;;11.90;3.17;;;7.30;99.90;;;;;;5047343;28;20199;-54
2021/04/23 06:46:39;;;;;;;14.53;2.83;;;7.30;99.90;;;;;;5036915;28;20196;-50
2021/04/23 06:49:06;;;;;;;10.23;3.00;;;7.40;99.90;;;;;;5042740;28;20207;-55
2021/04/23 06:51:32;;;;;;;14.57;3.37;;;7.40;99.90;;;;;;5039232;28;20234;-53
2021/04/23 06:53:59;;;;;;;10.90;2.97;;;7.50;99.90;;;;;;5039849;28;20219;-54
2021/04/23 06:56:25;;;;;;;13.97;2.77;;;7.50;99.90;;;;;;5038642;28;20687;-54
2021/04/23 06:58:51;;;;;;;10.70;2.77;;;7.50;99.90;;;;;;5035401;28;20188;-50
2021/04/23 07:01:18;;;;;;;13.03;3.10;;;7.50;99.90;;;;;;5030446;28;20617;-57
2021/04/23 07:03:44;;;;;;;12.93;2.80;;;7.60;99.90;;;;;;5040939;28;20189;-53
2021/04/23 07:06:11;;;;;;;14.03;3.23;;;7.70;99.90;;;;;;5032613;28;20576;-54
2021/04/23 07:08:38;;;;;;;12.43;3.00;;;7.70;99.90;;;;;;5038002;28;20222;-52
2021/04/23 07:11:05;;;;;;;5.50;2.40;;;7.70;99.90;;;;;;5054792;28;20256;-55
2021/04/23 07:13:31;;;;;;;9.93;2.53;;;7.80;99.90;;;;;;5044195;28;20202;-53
2021/04/23 07:15:57;;;;;;;11.67;3.07;;;7.90;99.90;;;;;;5047688;28;20195;-49
2021/04/23 07:18:23;;;;;;;10.83;2.63;;;7.80;99.90;;;;;;5044912;28;20261;-55
2021/04/23 07:20:49;;;;;;;11.10;2.33;;;7.90;99.90;;;;;;5032804;28;20378;-51
2021/04/23 07:23:16;;;;;;;11.00;2.87;;;7.90;99.90;;;;;;5046385;28;20757;-50
2021/04/23 07:25:43;;;;;;;14.33;2.93;;;7.90;99.90;;;;;;5038062;28;20933;-55
2021/04/23 07:28:09;;;;;;;14.70;3.07;;;8.00;99.90;;;;;;5041841;28;20247;-50
2021/04/23 07:30:37;;;;;;;9.53;2.80;;;8.10;99.90;;;;;;5035113;28;20213;-51
2021/04/23 07:33:06;;;;;;;6.80;2.77;;;8.10;99.90;;;;;;5045016;28;20675;-52
2021/04/23 07:35:33;;;;;;;8.40;1.93;;;8.10;99.90;;;;;;5042670;28;20961;-54
2021/04/23 07:38:00;;;;;;;16.07;3.50;;;8.10;99.90;;;;;;5064433;28;20224;-53
2021/04/23 07:40:29;;;;;;;8.23;2.07;;;8.20;99.90;;;;;;5050042;28;20252;-54
2021/04/23 07:42:55;;;;;;;12.77;2.80;;;8.20;99.90;;;;;;5043412;28;20205;-54
2021/04/23 07:45:22;;;;;;;13.57;2.40;;;8.30;99.90;;;;;;5052227;28;20199;-55
2021/04/23 07:47:48;;;;;;;11.80;3.17;;;8.30;99.90;;;;;;5047679;28;20642;-52
2021/04/23 07:50:16;;;;;;;11.77;2.50;;;8.30;99.90;;;;;;5055319;28;20191;-56
2021/04/23 07:52:42;;;;;;;13.77;2.40;;;8.40;99.90;;;;;;5045608;28;20918;-52
2021/04/23 07:55:10;;;;;;;12.30;2.27;;;8.50;99.90;;;;;;5058548;28;20198;-51
2021/04/23 07:57:38;;;;;;;10.37;2.50;;;8.60;99.90;;;;;;5039557;28;20740;-51
2021/04/23 08:00:05;;;;;;;12.60;2.50;;;8.70;99.90;;;;;;5045516;28;20596;-50
2021/04/23 08:02:41;;;;;;;11.87;2.77;;;8.80;99.90;;;;;;5043440;28;20791;-59
2021/04/23 08:05:08;;;;;;;11.60;2.23;;;8.80;99.90;;;;;;5041842;28;20717;-54
2021/04/23 08:07:34;;;;;;;8.63;2.93;;;8.80;99.90;;;;;;5027475;28;20227;-51
2021/04/23 08:10:00;;;;;;;11.27;2.70;;;8.90;99.90;;;;;;5053747;28;20368;-54
2021/04/23 08:12:26;;;;;;;8.60;2.47;;;9.10;99.90;;;;;;5046982;28;20230;-49
2021/04/23 08:14:53;;;;;;;14.20;3.17;;;9.10;99.90;;;;;;5054369;28;20892;-53
2021/04/23 08:17:20;;;;;;;4.20;1.70;;;9.00;99.90;;;;;;5032209;28;20207;-48
2021/04/23 08:19:46;;;;;;;13.10;2.90;;;9.00;99.90;;;;;;5028574;28;20203;-50
2021/04/23 08:22:12;;;;;;;9.53;2.63;;;9.10;99.90;;;;;;5034334;28;21147;-51
2021/04/23 08:24:38;;;;;;;8.83;2.37;;;9.10;99.90;;;;;;5048418;28;20203;-54
2021/04/23 08:27:05;;;;;;;11.17;2.27;;;9.20;99.90;;;;;;5045382;28;20205;-54
2021/04/23 08:29:31;;;;;;;9.33;2.30;;;9.30;99.90;;;;;;5035260;28;20214;-54
2021/04/23 08:31:58;;;;;;;8.87;2.60;;;9.30;99.90;;;;;;5041782;28;20211;-52
2021/04/23 08:34:24;;;;;;;11.93;2.40;;;9.50;99.90;;;;;;5041116;28;20562;-49
2021/04/23 08:36:50;;;;;;;6.20;2.60;;;9.50;99.90;;;;;;5038408;28;20684;-52
2021/04/23 08:39:16;;;;;;;6.80;1.70;;;9.40;99.90;;;;;;5028652;28;20191;-54
2021/04/23 08:41:42;;;;;;;10.43;2.40;;;9.50;99.80;;;;;;5049246;28;20652;-53
2021/04/23 08:44:09;;;;;;;7.50;2.07;;;9.50;99.90;;;;;;5042973;28;20202;-52
2021/04/23 08:46:36;;;;;;;4.63;1.90;;;9.60;99.90;;;;;;5040427;28;20210;-50
2021/04/23 08:49:05;;;;;;;6.23;1.77;;;9.60;98.30;;;;;;5031347;28;20988;-53
2021/04/23 08:51:32;;;;;;;7.70;1.80;;;9.60;96.80;;;;;;5044767;28;20226;-53
2021/04/23 08:53:59;;;;;;;6.93;2.03;;;9.70;97.80;;;;;;5028872;28;20217;-54
2021/04/23 08:56:26;;;;;;;8.40;1.63;;;9.80;97.80;;;;;;5049865;28;20203;-53
2021/04/23 08:58:53;;;;;;;7.13;1.90;;;9.90;96.80;;;;;;5049967;28;20202;-54
2021/04/23 09:01:19;;;;;;;8.63;2.33;;;9.80;97.70;;;;;;5062860;28;20300;-53
2021/04/23 09:03:45;;;;;;;5.33;1.93;;;9.90;97.20;;;;;;5063134;28;20578;-53
2021/04/23 09:06:15;;;;;;;11.67;2.50;;;10.10;97.50;;;;;;5041741;28;20417;-52
2021/04/23 09:08:59;;;;;;;9.37;2.40;;;10.10;96.80;;;;;;5040293;28;20238;-52
2021/04/23 09:11:27;;;;;;;6.20;1.63;;;10.10;94.50;;;;;;5038109;28;20230;-52
2021/04/23 09:13:54;;;;;;;8.47;1.47;;;10.20;95.60;;;;;;5023835;28;20199;-56
2021/04/23 09:16:24;;;;;;;8.97;2.30;;;10.20;94.20;;;;;;5020936;28;20209;-55
2021/04/23 09:18:51;;;;;;;10.13;1.97;;;10.20;94.90;;;;;;5028988;28;20195;-55
2021/04/23 09:21:19;;;;;;;8.10;2.00;;;10.40;95.00;;;;;;5029763;28;20223;-52
2021/04/23 09:23:46;;;;;;;7.07;1.57;;;10.40;92.80;;;;;;5038860;28;20683;-53
2021/04/23 09:26:31;;;;;;;8.67;1.70;;;10.40;91.60;;;;;;5034366;28;20724;-51
2021/04/23 09:28:57;;;;;;;10.67;2.17;;;10.40;91.40;;;;;;5035958;28;20238;-52
2021/04/23 09:31:25;;;;;;;8.50;2.20;;;10.40;91.90;;;;;;5039871;28;20804;-52
2021/04/23 09:33:53;;;;;;;5.87;1.60;;;10.60;91.20;;;;;;5043732;28;20199;-51
2021/04/23 09:36:31;;;;;;;5.60;1.77;;;10.60;90.40;;;;;;5037313;28;20561;-54
2021/04/23 09:39:10;;;;;;;6.67;2.20;;;10.70;88.30;;;;;;5042809;28;20190;-51
2021/04/23 09:41:37;;;;;;;6.80;2.10;;;10.70;90.50;;;;;;5039872;28;20278;-53
2021/04/23 09:44:04;;;;;;;8.33;2.23;;;10.80;91.90;;;;;;5052710;28;20699;-54
2021/04/23 09:46:34;;;;;;;7.50;1.93;;;10.90;92.10;;;;;;5036368;28;20184;-54
2021/04/23 09:49:14;;;;;;;7.17;2.03;;;11.00;89.10;;;;;;5033392;28;20204;-54
2021/04/23 09:51:42;;;;;;;8.10;2.10;;;10.90;90.70;;;;;;5031867;28;20463;-53
2021/04/23 09:54:13;;;;;;;6.77;2.60;;;10.80;91.30;;;;;;5036154;28;20212;-52
2021/04/23 09:56:40;;;;;;;10.97;2.10;;;10.80;91.50;;;;;;5023435;28;20361;-54
2021/04/23 09:59:18;;;;;;;14.40;2.87;;;11.00;91.00;;;;;;5038427;28;20199;-53
2021/04/23 10:01:59;;;;;;;8.03;1.93;;;10.70;90.60;;;;;;5034264;28;20226;-53
2021/04/23 10:04:28;;;;;;;5.80;1.87;;;10.80;90.90;;;;;;5020966;28;20184;-56
2021/04/23 10:07:17;;;;;;;7.00;2.17;;;10.90;89.20;;;;;;5038887;28;20218;-51
2021/04/23 10:09:59;;;;;;;5.47;2.13;;;10.80;87.80;;;;;;5035212;28;20203;-54
2021/04/23 10:12:34;;;;;;;7.73;2.03;;;11.00;90.10;;;;;;5019399;28;20219;-54
2021/04/23 10:15:03;;;;;;;8.53;2.70;;;11.00;90.00;;;;;;5043537;28;20205;-55
2021/04/23 10:17:29;;;;;;;6.73;2.60;;;11.00;90.40;;;;;;5035823;28;20199;-54
2021/04/23 10:19:57;;;;;;;7.47;1.77;;;11.20;90.10;;;;;;5042461;28;20195;-50
2021/04/23 10:22:25;;;;;;;4.67;1.90;;;11.20;89.20;;;;;;5038470;28;20245;-50
2021/04/23 10:24:52;;;;;;;12.27;2.30;;;11.20;86.40;;;;;;5046581;28;20211;-53
2021/04/23 10:27:20;;;;;;;6.63;2.00;;;11.30;87.70;;;;;;5034234;28;20206;-54
2021/04/23 10:29:48;;;;;;;9.70;2.83;;;11.10;90.00;;;;;;5050267;28;20627;-54
2021/04/23 10:32:15;;;;;;;9.73;2.73;;;11.10;90.30;;;;;;5027577;28;20226;-52
2021/04/23 10:34:42;;;;;;;11.23;2.60;;;11.10;88.00;;;;;;5021413;28;20405;-51
2021/04/23 10:37:09;;;;;;;6.60;1.70;;;11.20;86.20;;;;;;5021751;28;20192;-52
2021/04/23 10:39:38;;;;;;;7.67;2.17;;;11.20;86.90;;;;;;5019649;28;20196;-50
2021/04/23 10:42:05;;;;;;;9.00;2.10;;;11.40;87.30;;;;;;5045480;28;20214;-52
2021/04/23 10:44:50;;;;;;;5.60;2.20;;;11.50;85.20;;;;;;5040744;28;20213;-52
2021/04/23 10:47:29;;;;;;;9.37;2.30;;;11.40;80.80;;;;;;5040395;28;20203;-52
2021/04/23 10:50:06;;;;;;;6.43;2.00;;;11.30;82.90;;;;;;5039005;28;20968;-54
2021/04/23 10:52:33;;;;;;;7.70;1.87;;;11.30;85.60;;;;;;5041562;28;20199;-51
2021/04/23 10:55:06;;;;;;;6.30;1.73;;;11.60;82.10;;;;;;5027681;28;20208;-56
2021/04/23 10:57:53;;;;;;;9.27;1.57;;;11.60;78.50;;;;;;5040821;28;20195;-55
2021/04/23 11:00:30;;;;;;;5.90;2.07;;;11.60;75.20;;;;;;5033413;28;20696;-54
2021/04/23 11:03:28;;;;;;;4.90;1.67;;;11.70;76.10;;;;;;5029051;28;20199;-51
2021/04/23 11:05:55;;;;;;;5.77;2.10;;;11.60;77.50;;;;;;5038805;28;20192;-53
2021/04/23 11:08:23;;;;;;;4.53;1.90;;;11.70;76.80;;;;;;5042852;28;20693;-51
2021/04/23 11:11:18;;;;;;;6.90;1.80;;;11.80;77.60;;;;;;5019146;28;20417;-52
2021/04/23 11:13:47;;;;;;;6.57;1.73;;;11.90;76.60;;;;;;5052042;28;20339;-52
2021/04/23 11:16:33;;;;;;;7.57;1.80;;;11.90;76.30;;;;;;5034962;28;20294;-52
2021/04/23 11:19:37;;;;;;;6.23;1.83;;;12.00;76.90;;;;;;5037361;28;20210;-52
2021/04/23 11:22:13;;;;;;;8.83;1.90;;;11.80;74.30;;;;;;5024143;28;20220;-52
2021/04/23 11:24:40;;;;;;;7.57;1.97;;;11.80;75.00;;;;;;5025925;28;20203;-50
2021/04/23 11:27:11;;;;;;;7.33;1.73;;;11.90;76.20;;;;;;5029378;28;20233;-54
2021/04/23 11:30:03;;;;;;;5.63;1.73;;;11.90;76.30;;;;;;5027604;28;20696;-53
2021/04/23 11:32:31;;;;;;;5.83;2.40;;;11.90;76.00;;;;;;5042917;28;21326;-51
2021/04/23 11:34:59;;;;;;;10.23;2.30;;;11.80;75.90;;;;;;5025039;28;20599;-51
2021/04/23 11:37:28;;;;;;;9.53;2.30;;;11.80;77.80;;;;;;5039747;28;20202;-51
2021/04/23 11:39:56;;;;;;;7.33;2.03;;;12.10;78.00;;;;;;5065047;28;20202;-48
2021/04/23 11:42:23;;;;;;;8.17;2.27;;;12.20;79.80;;;;;;5043352;28;20223;-49
2021/04/23 11:45:04;;;;;;;8.97;1.87;;;12.40;82.90;;;;;;5053586;28;20199;-51
2021/04/23 11:47:33;;;;;;;6.87;2.00;;;12.30;84.60;;;;;;5032280;28;20772;-49
2021/04/23 11:50:08;;;;;;;6.50;1.93;;;12.30;82.10;;;;;;5056393;28;20260;-54
2021/04/23 11:52:35;;;;;;;7.30;2.00;;;12.20;80.60;;;;;;5047963;28;20672;-53
2021/04/23 11:55:07;;;;;;;11.07;2.60;;;12.00;80.90;;;;;;5045570;28;20195;-54
2021/04/23 11:57:33;;;;;;;8.77;2.50;;;11.90;85.30;;;;;;5040882;28;20345;-49
2021/04/23 12:00:07;;;;;;;9.17;2.40;;;12.20;86.80;;;;;;5043872;28;20683;-52
2021/04/23 12:02:52;;;;;;;5.83;2.10;;;12.30;85.50;;;;;;5037410;28;20206;-54
2021/04/23 12:05:24;;;;;;;12.60;2.80;;;12.30;87.70;;;;;;5044220;28;20194;-49
2021/04/23 12:07:52;;;;;;;13.33;2.37;;;12.30;90.60;;;;;;5035796;28;20211;-55
2021/04/23 12:10:20;;;;;;;8.17;2.10;;;12.40;90.50;;;;;;5040731;28;20188;-52
2021/04/23 12:12:47;;;;;;;6.17;2.80;;;12.60;90.60;;;;;;5052638;28;20206;-49
2021/04/23 12:15:28;;;;;;;6.40;2.10;;;12.60;88.90;;;;;;5050732;28;20800;-53
2021/04/23 12:17:55;;;;;;;11.80;2.63;;;12.60;88.00;;;;;;5050354;28;20198;-51
2021/04/23 12:20:26;;;;;;;6.13;2.37;;;12.60;87.40;;;;;;5048994;28;20208;-53
2021/04/23 12:22:53;;;;;;;9.67;2.20;;;12.60;88.40;;;;;;5064916;28;20187;-49
2021/04/23 12:25:31;;;;;;;7.80;2.03;;;12.60;88.80;;;;;;5052713;28;20438;-51
2021/04/23 12:28:20;;;;;;;8.33;2.17;;;12.40;89.90;;;;;;5059808;28;20226;-48
2021/04/23 12:30:48;;;;;;;9.70;2.37;;;12.50;91.20;;;;;;5037409;28;20814;-51
2021/04/23 12:33:14;;;;;;;10.00;2.27;;;12.70;90.40;;;;;;5016474;28;20206;-51
2021/04/23 12:35:44;;;;;;;10.83;2.07;;;12.80;89.30;;;;;;5045391;28;20191;-52
2021/04/23 12:38:12;;;;;;;9.33;2.77;;;12.70;86.80;;;;;;5052505;28;20631;-51
2021/04/23 12:40:42;;;;;;;11.37;2.57;;;12.40;88.50;;;;;;5056193;28;20293;-51
2021/04/23 12:43:16;;;;;;;7.00;2.23;;;12.40;90.40;;;;;;5028627;28;20265;-55
2021/04/23 12:45:45;;;;;;;9.97;2.40;;;12.60;91.40;;;;;;5037826;28;20213;-53
2021/04/23 12:48:12;;;;;;;11.63;2.20;;;12.70;90.10;;;;;;5036634;28;20333;-54
2021/04/23 12:50:39;;;;;;;8.63;2.40;;;12.70;89.70;;;;;;5040151;28;20226;-50
2021/04/23 12:53:06;;;;;;;9.30;2.73;;;12.60;90.40;;;;;;5031067;28;20192;-51
2021/04/23 12:55:32;;;;;;;8.13;2.43;;;12.60;90.10;;;;;;5032584;28;20278;-50